Time;durP1;ratioP1;P1;durP2;ratioP2;P2;SDS_P1;SDS_P2;PMS_P1;PMS_P2;Temp;Humidity;BMP_temperature;BMP_pressure;BME280_temperature;BME280_humidity;BME280_pressure;Samples;Min_cycle;Max_cycle;Signal;HPM_P1;HPM_P2
2022/09/28 00:00:31;;;;;;;6.05;3.45;;;7.70;99.90;;;;;;3056703;19;20019;-69
2022/09/28 00:01:36;;;;;;;6.13;3.67;;;7.90;99.90;;;;;;3058415;19;20011;-68
2022/09/28 00:02:38;;;;;;;6.00;3.33;;;7.90;99.90;;;;;;3057850;19;20018;-68
2022/09/28 00:03:41;;;;;;;;;;;7.90;99.90;;;;;;3058293;19;20044;-68
2022/09/28 00:04:43;;;;;;;5.68;3.08;;;7.80;99.90;;;;;;3059834;19;19940;-68
2022/09/28 00:05:47;;;;;;;3.83;3.00;;;8.00;99.90;;;;;;3059206;19;20017;-68
2022/09/28 00:06:48;;;;;;;5.07;3.20;;;7.80;99.90;;;;;;3057102;19;20010;-68
2022/09/28 00:07:52;;;;;;;6.55;3.58;;;;;;;;;;3058646;19;20002;-68
2022/09/28 00:08:54;;;;;;;6.38;3.40;;;7.50;99.90;;;;;;3058109;19;20664;-68
2022/09/28 00:09:58;;;;;;;4.78;3.40;;;7.80;99.90;;;;;;3058621;19;20415;-68
2022/09/28 00:11:01;;;;;;;5.20;3.30;;;7.80;99.90;;;;;;3057771;19;20014;-68
2022/09/28 00:12:05;;;;;;;5.47;3.58;;;7.60;99.90;;;;;;3058170;19;20081;-68
2022/09/28 00:13:07;;;;;;;6.13;3.42;;;7.60;99.90;;;;;;3058822;19;20482;-68
2022/09/28 00:14:14;;;;;;;6.00;3.28;;;7.70;99.90;;;;;;3058876;19;20021;-68
2022/09/28 00:15:16;;;;;;;4.97;3.20;;;7.50;99.90;;;;;;3058355;19;20488;-68
2022/09/28 00:16:25;;;;;;;4.35;3.30;;;7.70;99.90;;;;;;3057374;19;20028;-69
2022/09/28 00:17:26;;;;;;;6.05;3.50;;;7.50;99.90;;;;;;3058044;19;20357;-68
2022/09/28 00:18:30;;;;;;;5.65;3.70;;;7.40;99.90;;;;;;3058896;19;20043;-68
2022/09/28 00:19:35;;;;;;;6.38;3.53;;;7.50;99.90;;;;;;3057192;19;20015;-68
2022/09/28 00:20:36;;;;;;;8.05;3.88;;;7.80;99.90;;;;;;3056918;19;20007;-68
2022/09/28 00:21:42;;;;;;;4.85;3.30;;;7.80;99.90;;;;;;3057347;19;20031;-68
2022/09/28 00:22:44;;;;;;;5.82;4.07;;;7.60;99.90;;;;;;3057566;19;20509;-68
2022/09/28 00:25:05;;;;;;;5.15;3.13;;;7.30;99.90;;;;;;3058969;19;20024;-68
2022/09/28 00:26:08;;;;;;;4.90;3.67;;;7.80;99.90;;;;;;3057279;19;20019;-69
2022/09/28 00:27:13;;;;;;;6.13;3.80;;;7.40;99.90;;;;;;3059696;19;20022;-68
2022/09/28 00:28:15;;;;;;;7.05;3.80;;;;;;;;;;3057614;19;20022;-68
2022/09/28 00:29:26;;;;;;;;;;;7.70;99.90;;;;;;3058584;19;20078;-68
2022/09/28 00:30:27;;;;;;;5.07;3.47;;;7.40;99.90;;;;;;3057854;19;19919;-68
2022/09/28 00:31:33;;;;;;;4.80;3.78;;;7.40;99.90;;;;;;3059068;19;20015;-68
2022/09/28 00:32:37;;;;;;;5.22;3.60;;;7.40;99.90;;;;;;3059985;19;20013;-68
2022/09/28 00:33:39;;;;;;;6.15;3.83;;;7.50;99.90;;;;;;3057838;19;20090;-68
2022/09/28 00:34:45;;;;;;;6.22;3.55;;;7.50;99.90;;;;;;3057807;19;20036;-68
2022/09/28 00:35:53;;;;;;;5.68;4.13;;;7.20;99.90;;;;;;3058000;19;20015;-68
2022/09/28 00:36:57;;;;;;;7.18;3.60;;;7.30;99.90;;;;;;3057880;19;20021;-68
2022/09/28 00:37:58;;;;;;;6.65;3.53;;;7.80;99.90;;;;;;3056406;19;20014;-68
2022/09/28 00:39:07;;;;;;;6.25;3.88;;;7.40;99.90;;;;;;3058144;19;20035;-68
2022/09/28 00:40:11;;;;;;;7.50;3.63;;;7.50;99.90;;;;;;3058869;19;20019;-68
2022/09/28 00:41:14;;;;;;;6.88;3.35;;;7.30;99.90;;;;;;3057141;19;20054;-68
2022/09/28 00:42:19;;;;;;;8.90;3.58;;;7.30;99.90;;;;;;3057175;19;20550;-68
2022/09/28 00:43:22;;;;;;;7.07;4.03;;;7.20;99.90;;;;;;3058156;19;20015;-68
2022/09/28 00:44:48;;;;;;;6.45;3.55;;;7.30;99.90;;;;;;3058570;19;20043;-68
2022/09/28 00:45:57;;;;;;;5.13;3.63;;;7.30;99.90;;;;;;3058129;19;20362;-68
2022/09/28 00:47:14;;;;;;;5.60;3.45;;;7.60;99.90;;;;;;3059286;19;20010;-68
2022/09/28 00:48:18;;;;;;;6.68;3.88;;;7.20;99.90;;;;;;3058442;19;20512;-68
2022/09/28 00:49:24;;;;;;;6.05;3.40;;;7.00;99.90;;;;;;3057399;19;20397;-68
2022/09/28 00:50:31;;;;;;;6.32;3.75;;;7.20;99.90;;;;;;3057744;19;20018;-68
2022/09/28 00:51:34;;;;;;;5.90;3.60;;;6.10;99.90;;;;;;3059259;19;20153;-68
2022/09/28 00:52:43;;;;;;;5.50;3.63;;;7.30;99.90;;;;;;3057323;19;20095;-69
2022/09/28 00:53:45;;;;;;;6.13;3.53;;;7.70;99.90;;;;;;3057069;19;20007;-68
2022/09/28 00:54:50;;;;;;;6.28;3.45;;;7.20;99.90;;;;;;3056030;19;20038;-68
2022/09/28 00:55:56;;;;;;;5.93;4.05;;;7.10;99.90;;;;;;3057581;19;20011;-68
2022/09/28 00:57:03;;;;;;;6.25;3.67;;;6.90;99.90;;;;;;3058571;19;20011;-68
2022/09/28 00:58:08;;;;;;;7.45;4.03;;;7.30;99.90;;;;;;3057897;19;20022;-68
2022/09/28 00:59:16;;;;;;;7.63;3.78;;;7.50;99.90;;;;;;3057169;19;20031;-68
2022/09/28 01:00:21;;;;;;;5.85;3.65;;;7.30;99.90;;;;;;3059630;19;20463;-68
2022/09/28 01:01:25;;;;;;;7.32;4.00;;;7.30;99.90;;;;;;3057855;19;20022;-68
2022/09/28 01:02:27;;;;;;;5.07;3.53;;;7.20;99.90;;;;;;3057820;19;20023;-68
2022/09/28 01:03:32;;;;;;;7.07;3.60;;;7.30;99.90;;;;;;3057972;19;20002;-68
2022/09/28 01:04:35;;;;;;;7.25;3.85;;;7.30;99.90;;;;;;3057583;19;20031;-68
2022/09/28 01:05:42;;;;;;;5.07;4.15;;;6.80;99.90;;;;;;3059647;19;20019;-68
2022/09/28 01:06:45;;;;;;;7.00;4.20;;;7.30;99.90;;;;;;3057814;19;20011;-68
2022/09/28 01:07:50;;;;;;;5.07;4.10;;;7.00;99.90;;;;;;3057904;19;20393;-68
2022/09/28 01:08:54;;;;;;;5.75;4.22;;;7.40;99.90;;;;;;3057070;19;20018;-68
2022/09/28 01:09:58;;;;;;;8.05;4.03;;;7.30;99.90;;;;;;3058700;19;20039;-68
2022/09/28 01:11:00;;;;;;;8.73;4.53;;;7.10;99.90;;;;;;3057052;19;20520;-69
2022/09/28 01:12:04;;;;;;;5.63;4.00;;;7.40;99.90;;;;;;3057726;19;20009;-68
2022/09/28 01:13:07;;;;;;;6.07;4.03;;;;;;;;;;3057716;19;20014;-68
2022/09/28 01:14:14;;;;;;;6.80;4.32;;;7.30;99.90;;;;;;3057837;19;20074;-68
2022/09/28 01:15:16;;;;;;;9.50;4.65;;;7.30;99.90;;;;;;3057401;19;20014;-68
2022/09/28 01:16:35;;;;;;;7.65;4.40;;;7.00;99.90;;;;;;3057262;19;20022;-68
2022/09/28 01:17:48;;;;;;;7.55;4.40;;;7.30;99.90;;;;;;3058772;19;20018;-68
2022/09/28 01:19:01;;;;;;;7.97;4.35;;;7.10;99.90;;;;;;3057914;19;20012;-68
2022/09/28 01:20:22;;;;;;;;;;;7.30;99.90;;;;;;3057681;19;20019;-69
2022/09/28 01:21:27;;;;;;;5.93;3.60;;;7.10;99.90;;;;;;3059271;19;19923;-68
2022/09/28 01:22:52;;;;;;;4.47;3.75;;;7.10;99.90;;;;;;3057875;19;20472;-68
2022/09/28 01:24:14;;;;;;;6.13;3.90;;;7.00;99.90;;;;;;3057510;19;20022;-68
2022/09/28 01:25:27;;;;;;;6.25;3.92;;;7.10;99.90;;;;;;3057665;19;20116;-68
2022/09/28 01:27:05;;;;;;;5.90;4.20;;;7.30;99.90;;;;;;3056926;19;20030;-68
2022/09/28 01:28:11;;;;;;;5.80;4.18;;;6.90;99.90;;;;;;3058294;19;20025;-68
2022/09/28 01:29:27;;;;;;;6.22;4.07;;;7.30;99.90;;;;;;2957486;19;20081;-68
2022/09/28 01:30:34;;;;;;;6.05;3.97;;;6.90;99.90;;;;;;3056921;19;20495;-68
2022/09/28 01:31:39;;;;;;;8.80;3.75;;;;;;;;;;2978487;19;20010;-68
2022/09/28 01:32:49;;;;;;;5.78;4.20;;;7.00;99.90;;;;;;3056547;19;20010;-67
2022/09/28 01:34:00;;;;;;;5.45;3.88;;;7.00;99.90;;;;;;3056418;19;20018;-68
2022/09/28 01:35:07;;;;;;;6.47;3.65;;;6.60;99.90;;;;;;3057489;19;20118;-68
2022/09/28 01:36:15;;;;;;;8.45;4.20;;;6.80;99.90;;;;;;3056248;19;20007;-69
2022/09/28 01:37:20;;;;;;;5.40;3.70;;;6.90;99.90;;;;;;3060007;19;20014;-68
2022/09/28 01:38:31;;;;;;;6.68;4.03;;;6.90;99.90;;;;;;3060695;19;20018;-68
2022/09/28 01:39:38;;;;;;;7.30;3.87;;;6.80;99.90;;;;;;3060864;19;20376;-68
2022/09/28 01:40:43;;;;;;;6.93;4.10;;;7.10;99.90;;;;;;3059930;19;20342;-69
2022/09/28 01:41:48;;;;;;;5.40;4.07;;;6.90;99.90;;;;;;3060007;19;20029;-68
2022/09/28 01:42:59;;;;;;;7.07;4.57;;;6.60;99.90;;;;;;3060767;19;20019;-68
2022/09/28 01:44:04;;;;;;;5.35;3.95;;;6.90;99.90;;;;;;3059321;19;20011;-68
2022/09/28 01:45:14;;;;;;;6.93;4.03;;;7.00;99.90;;;;;;3061282;19;20026;-68
2022/09/28 01:46:20;;;;;;;5.82;4.00;;;6.60;99.90;;;;;;3059944;19;20077;-70
2022/09/28 01:47:28;;;;;;;5.95;4.70;;;6.70;99.90;;;;;;3061536;19;20017;-68
2022/09/28 01:48:34;;;;;;;8.82;4.65;;;6.70;99.90;;;;;;3060324;19;20022;-68
2022/09/28 01:49:42;;;;;;;5.22;3.83;;;6.70;99.90;;;;;;3059337;19;19998;-68
2022/09/28 01:50:52;;;;;;;7.32;4.40;;;6.90;99.90;;;;;;3061948;19;20019;-68
2022/09/28 01:51:59;;;;;;;5.97;4.20;;;6.50;99.90;;;;;;3059495;19;20018;-69
2022/09/28 01:53:08;;;;;;;7.22;4.20;;;6.70;99.90;;;;;;3059247;19;20021;-68
2022/09/28 01:54:12;;;;;;;8.30;4.28;;;6.40;99.90;;;;;;3059651;19;20018;-69
2022/09/28 01:55:24;;;;;;;6.18;4.38;;;6.50;99.90;;;;;;3061468;19;20089;-68
2022/09/28 01:56:31;;;;;;;5.63;4.15;;;6.70;99.90;;;;;;3059515;19;20033;-68
2022/09/28 01:57:40;;;;;;;14.15;4.28;;;6.60;99.90;;;;;;3059888;19;20090;-68
2022/09/28 01:58:49;;;;;;;6.53;4.05;;;6.70;99.90;;;;;;3058627;19;20022;-68
2022/09/28 02:00:01;;;;;;;5.75;3.90;;;6.70;99.90;;;;;;3060472;19;20018;-68
2022/09/28 02:01:28;;;;;;;7.57;3.85;;;6.60;99.90;;;;;;3056217;19;20018;-68
2022/09/28 02:02:37;;;;;;;7.00;4.10;;;6.70;99.90;;;;;;3061679;19;20165;-68
2022/09/28 02:03:41;;;;;;;6.95;4.00;;;6.60;99.90;;;;;;3060104;19;20015;-68
2022/09/28 02:04:52;;;;;;;4.93;3.80;;;6.70;99.90;;;;;;3060445;19;20010;-68
2022/09/28 02:06:00;;;;;;;5.72;3.92;;;6.60;99.90;;;;;;3059517;19;20014;-68
2022/09/28 02:07:10;;;;;;;6.95;3.88;;;6.50;99.90;;;;;;3059312;19;20042;-69
2022/09/28 02:08:24;;;;;;;4.85;3.75;;;6.60;99.90;;;;;;3060555;19;20421;-69
2022/09/28 02:09:32;;;;;;;6.03;4.03;;;6.60;99.90;;;;;;3060215;19;20021;-68
2022/09/28 02:10:43;;;;;;;6.85;4.15;;;6.70;99.90;;;;;;3058726;19;20007;-69
2022/09/28 02:11:49;;;;;;;6.07;4.18;;;6.70;99.90;;;;;;3059682;19;20021;-68
2022/09/28 02:12:57;;;;;;;6.25;4.13;;;6.30;99.90;;;;;;3060517;19;20565;-68
2022/09/28 02:14:03;;;;;;;10.00;4.60;;;6.70;99.90;;;;;;3059858;19;20032;-68
2022/09/28 02:15:14;;;;;;;6.38;3.88;;;6.70;99.90;;;;;;3060832;19;20014;-68
2022/09/28 02:16:19;;;;;;;8.70;4.25;;;6.60;99.90;;;;;;3060295;19;20018;-68
2022/09/28 02:17:23;;;;;;;5.68;3.83;;;6.70;99.90;;;;;;3058941;19;20043;-69
2022/09/28 02:18:24;;;;;;;5.18;4.03;;;6.60;99.90;;;;;;3059095;19;20427;-68
2022/09/28 02:19:30;;;;;;;5.65;3.80;;;6.50;99.90;;;;;;3061309;19;20018;-68
2022/09/28 02:20:33;;;;;;;6.88;4.00;;;6.70;99.90;;;;;;3060676;19;20494;-68
2022/09/28 02:21:43;;;;;;;8.82;4.00;;;6.30;99.90;;;;;;3059340;19;20104;-68
2022/09/28 02:22:49;;;;;;;6.05;3.60;;;6.50;99.90;;;;;;3061763;19;20345;-68
2022/09/28 02:24:03;;;;;;;6.93;3.92;;;6.50;99.90;;;;;;3061029;19;20022;-68
2022/09/28 02:25:09;;;;;;;9.57;4.00;;;6.50;99.90;;;;;;3060216;19;20017;-68
2022/09/28 02:26:18;;;;;;;7.35;3.80;;;6.50;99.90;;;;;;3059805;19;20021;-69
2022/09/28 02:27:28;;;;;;;7.28;3.90;;;6.70;99.90;;;;;;3060864;19;20014;-69
2022/09/28 02:28:33;;;;;;;8.15;3.78;;;;;;;;;;3059596;19;20055;-68
2022/09/28 02:29:37;;;;;;;11.10;3.63;;;6.60;99.90;;;;;;3059670;19;20014;-68
2022/09/28 02:30:44;;;;;;;9.73;3.47;;;6.50;99.90;;;;;;3058718;19;20006;-69
2022/09/28 02:31:45;;;;;;;5.20;3.22;;;6.20;99.90;;;;;;3060404;19;20039;-68
2022/09/28 02:32:54;;;;;;;5.40;3.35;;;6.40;99.90;;;;;;3059366;19;20036;-67
2022/09/28 02:33:56;;;;;;;5.22;3.45;;;6.50;99.90;;;;;;3059135;19;20003;-68
2022/09/28 02:35:01;;;;;;;3.42;2.90;;;6.00;99.90;;;;;;3057228;19;20468;-68
2022/09/28 02:36:03;;;;;;;6.38;2.95;;;6.50;99.90;;;;;;3060995;19;20015;-69
2022/09/28 02:37:07;;;;;;;5.55;3.13;;;6.50;99.90;;;;;;3057274;19;20156;-69
2022/09/28 02:38:10;;;;;;;5.13;3.38;;;6.40;99.90;;;;;;3058273;19;20023;-69
2022/09/28 02:39:16;;;;;;;6.70;3.35;;;6.40;99.90;;;;;;3059498;19;20010;-69
2022/09/28 02:40:21;;;;;;;12.13;3.60;;;6.60;99.90;;;;;;3060524;19;20479;-69
2022/09/28 02:41:39;;;;;;;7.40;3.15;;;6.40;99.90;;;;;;3060121;19;20015;-69
2022/09/28 02:42:53;;;;;;;4.88;3.50;;;6.40;99.90;;;;;;3059649;19;20439;-69
2022/09/28 02:44:09;;;;;;;10.43;3.50;;;6.40;99.90;;;;;;3059929;19;20358;-68
2022/09/28 02:45:46;;;;;;;12.77;3.58;;;6.20;99.90;;;;;;3058222;19;20100;-68
2022/09/28 02:46:54;;;;;;;7.93;3.05;;;6.40;99.90;;;;;;3057953;19;20007;-69
2022/09/28 02:48:09;;;;;;;10.82;3.47;;;6.00;99.90;;;;;;3058242;19;20087;-68
2022/09/28 02:49:22;;;;;;;11.90;3.10;;;6.20;99.90;;;;;;3057463;19;20057;-69
2022/09/28 02:50:43;;;;;;;47.97;4.45;;;6.30;99.90;;;;;;3059340;19;20345;-69
2022/09/28 02:52:00;;;;;;;17.23;3.60;;;6.30;99.90;;;;;;3058925;19;20021;-69
2022/09/28 02:53:41;;;;;;;22.13;3.90;;;6.60;99.90;;;;;;3059515;19;20089;-69
2022/09/28 02:55:05;;;;;;;19.65;4.00;;;6.40;99.90;;;;;;3058427;19;20021;-68
2022/09/28 02:56:36;;;;;;;13.75;3.35;;;6.50;99.90;;;;;;3058276;19;20019;-69
2022/09/28 02:57:47;;;;;;;18.73;3.33;;;6.30;99.90;;;;;;3058888;19;20006;-69
2022/09/28 02:59:02;;;;;;;13.73;2.97;;;6.40;99.90;;;;;;3059791;19;20031;-69
2022/09/28 03:00:07;;;;;;;44.78;4.38;;;6.30;99.90;;;;;;3059229;19;20026;-68
2022/09/28 03:01:26;;;;;;;20.80;3.28;;;5.90;99.90;;;;;;3059368;19;20011;-68
2022/09/28 03:02:33;;;;;;;11.75;2.90;;;6.10;99.90;;;;;;3059079;19;20362;-69
2022/09/28 03:03:47;;;;;;;9.93;3.05;;;6.20;99.90;;;;;;3059377;19;20122;-69
2022/09/28 03:05:01;;;;;;;19.50;3.53;;;6.20;99.90;;;;;;3059644;19;20014;-69
2022/09/28 03:06:17;;;;;;;13.07;3.60;;;6.10;99.90;;;;;;3057943;19;20010;-69
2022/09/28 03:07:25;;;;;;;13.73;3.85;;;6.30;99.90;;;;;;3060923;19;20031;-69
2022/09/28 03:08:35;;;;;;;8.40;3.60;;;6.30;99.90;;;;;;3059309;19;20021;-68
2022/09/28 03:09:41;;;;;;;10.77;3.70;;;6.40;99.90;;;;;;3059186;19;20026;-69
2022/09/28 03:10:51;;;;;;;8.30;4.13;;;6.40;99.90;;;;;;3059378;19;20015;-69
2022/09/28 03:11:55;;;;;;;11.75;4.15;;;6.30;99.90;;;;;;3059055;19;20049;-69
2022/09/28 03:13:00;;;;;;;8.98;4.10;;;6.40;99.90;;;;;;3059532;19;20002;-68
2022/09/28 03:14:03;;;;;;;6.85;3.88;;;6.30;99.90;;;;;;3058971;19;20488;-69
2022/09/28 03:15:13;;;;;;;10.68;4.80;;;6.70;99.90;;;;;;3059640;19;20006;-68
2022/09/28 03:16:21;;;;;;;25.15;4.97;;;6.50;99.90;;;;;;3057652;19;20472;-69
2022/09/28 03:17:23;;;;;;;8.73;5.00;;;6.50;99.90;;;;;;3059467;19;20491;-68
2022/09/28 03:18:27;;;;;;;;;;;7.40;99.90;;;;;;3059591;19;20498;-69
2022/09/28 03:19:31;;;;;;;35.30;5.63;;;6.50;99.90;;;;;;3058282;19;19927;-69
2022/09/28 03:20:36;;;;;;;39.47;6.35;;;;;;;;;;3060417;19;20400;-69
2022/09/28 03:21:37;;;;;;;73.32;7.20;;;6.60;99.90;;;;;;3059427;19;20003;-69
2022/09/28 03:22:42;;;;;;;89.78;7.82;;;6.70;99.90;;;;;;3059952;19;20377;-69
2022/09/28 03:23:43;;;;;;;63.22;7.07;;;6.60;99.90;;;;;;3059793;19;20487;-68
2022/09/28 03:24:48;;;;;;;92.70;8.63;;;6.60;99.90;;;;;;3058720;19;20015;-68
2022/09/28 03:25:49;;;;;;;80.13;8.90;;;6.50;99.90;;;;;;3059884;19;20082;-69
2022/09/28 03:26:53;;;;;;;105.95;8.10;;;6.60;99.90;;;;;;3058830;19;20022;-69
2022/09/28 03:27:57;;;;;;;85.43;8.55;;;6.80;99.90;;;;;;3059302;19;20003;-68
2022/09/28 03:29:02;;;;;;;89.00;9.23;;;;;;;;;;3058077;19;20035;-69
2022/09/28 03:30:04;;;;;;;63.65;8.35;;;6.50;99.90;;;;;;3056815;19;20540;-69
2022/09/28 03:31:08;;;;;;;100.78;8.80;;;6.40;99.90;;;;;;3058094;19;20028;-69
2022/09/28 03:32:13;;;;;;;63.42;7.63;;;6.60;99.90;;;;;;3058045;19;20041;-69
2022/09/28 03:33:18;;;;;;;48.15;7.53;;;6.50;99.90;;;;;;3057005;19;20019;-69
2022/09/28 03:34:20;;;;;;;29.20;7.53;;;6.60;99.90;;;;;;3058589;19;20025;-69
2022/09/28 03:35:24;;;;;;;49.10;7.95;;;6.50;99.90;;;;;;3058166;19;20069;-69
2022/09/28 03:36:28;;;;;;;28.85;7.40;;;6.80;99.90;;;;;;3059137;19;20117;-69
2022/09/28 03:37:29;;;;;;;19.92;6.63;;;6.50;99.90;;;;;;3060505;19;20018;-69
2022/09/28 03:38:33;;;;;;;16.30;6.53;;;;;;;;;;3059201;19;20007;-69
2022/09/28 03:39:35;;;;;;;24.27;7.20;;;6.50;99.90;;;;;;3058891;19;20007;-69
2022/09/28 03:40:39;;;;;;;38.28;7.25;;;6.60;99.90;;;;;;3059113;19;20381;-69
2022/09/28 03:41:40;;;;;;;30.48;6.88;;;6.70;99.90;;;;;;3059575;19;20038;-69
2022/09/28 03:42:45;;;;;;;;;;;6.50;99.90;;;;;;3060270;19;20111;-69
2022/09/28 03:43:46;;;;;;;30.40;7.15;;;6.70;99.90;;;;;;3059904;19;20341;-69
2022/09/28 03:44:51;;;;;;;29.42;7.05;;;6.60;99.90;;;;;;3061419;19;20006;-69
2022/09/28 03:45:54;;;;;;;31.38;6.90;;;6.50;99.90;;;;;;3059950;19;20027;-69
2022/09/28 03:46:58;;;;;;;33.22;7.25;;;6.50;99.90;;;;;;3060662;19;20002;-69
2022/09/28 03:48:02;;;;;;;27.15;7.20;;;6.60;99.90;;;;;;3061900;19;20014;-69
2022/09/28 03:49:07;;;;;;;27.30;7.53;;;;;;;;;;3059956;19;20008;-69
2022/09/28 03:50:09;;;;;;;43.10;7.55;;;6.60;99.90;;;;;;3057462;19;20030;-69
2022/09/28 03:51:14;;;;;;;44.83;8.13;;;6.70;99.90;;;;;;3060944;19;20364;-69
2022/09/28 03:52:15;;;;;;;49.30;8.63;;;6.70;99.90;;;;;;3059179;19;20014;-69
2022/09/28 03:53:20;;;;;;;50.97;8.88;;;;;;;;;;3059332;19;20006;-69
2022/09/28 03:54:21;;;;;;;48.70;8.02;;;6.70;99.90;;;;;;3060541;19;20038;-69
2022/09/28 03:55:26;;;;;;;43.17;8.18;;;6.60;99.90;;;;;;3059477;19;20352;-69
2022/09/28 03:56:31;;;;;;;32.42;7.28;;;6.70;99.90;;;;;;3058876;19;20011;-69
2022/09/28 03:57:39;;;;;;;23.45;7.25;;;;;;;;;;3058416;19;20007;-70
2022/09/28 03:58:42;;;;;;;49.50;8.18;;;6.60;99.90;;;;;;3058938;19;20380;-69
2022/09/28 03:59:47;;;;;;;20.63;7.57;;;6.20;99.90;;;;;;3058268;19;20443;-69
2022/09/28 04:00:49;;;;;;;49.53;8.20;;;6.70;99.90;;;;;;3058301;19;20018;-70
2022/09/28 04:01:53;;;;;;;22.77;8.27;;;6.70;99.90;;;;;;3058109;19;20459;-69
2022/09/28 04:02:54;;;;;;;25.55;7.88;;;6.70;99.90;;;;;;3055766;19;20421;-69
2022/09/28 04:04:02;;;;;;;29.13;7.97;;;6.80;99.90;;;;;;3057197;19;20011;-69
2022/09/28 04:05:04;;;;;;;27.88;8.57;;;6.70;99.90;;;;;;3058839;19;20014;-69
2022/09/28 04:06:08;;;;;;;22.67;8.13;;;7.10;99.90;;;;;;3058200;19;20409;-69
2022/09/28 04:07:09;;;;;;;33.65;8.40;;;6.80;99.90;;;;;;3059316;19;20015;-70
2022/09/28 04:08:13;;;;;;;49.22;8.25;;;;;;;;;;3056631;19;20014;-69
2022/09/28 04:13:20;;;;;;;35.55;8.43;;;6.80;99.90;;;;;;3055433;19;20463;-70
2022/09/28 04:14:21;;;;;;;53.05;9.70;;;6.80;99.90;;;;;;3056384;19;20035;-68
2022/09/28 04:15:26;;;;;;;36.65;8.88;;;6.70;99.90;;;;;;3057805;19;20471;-69
2022/09/28 04:16:27;;;;;;;54.03;9.68;;;;;;;;;;3050474;19;20018;-70
2022/09/28 04:17:31;;;;;;;52.90;9.52;;;6.60;99.90;;;;;;3056132;19;20382;-69
2022/09/28 04:18:33;;;;;;;31.10;9.05;;;6.60;99.90;;;;;;3057702;19;20345;-69
2022/09/28 04:19:39;;;;;;;83.28;10.60;;;6.40;99.90;;;;;;3058427;19;20374;-69
2022/09/28 04:20:44;;;;;;;100.28;11.80;;;7.00;99.90;;;;;;3058402;19;20018;-68
2022/09/28 04:21:49;;;;;;;70.85;9.85;;;7.00;99.90;;;;;;3056317;19;20053;-69
2022/09/28 04:22:51;;;;;;;51.50;9.40;;;;;;;;;;3057631;19;20364;-69
2022/09/28 04:23:58;;;;;;;58.13;9.65;;;6.80;99.90;;;;;;3058022;19;20118;-69
2022/09/28 04:24:59;;;;;;;47.45;9.55;;;;;;;;;;3058088;19;20030;-69
2022/09/28 04:26:03;;;;;;;;;;;6.60;99.90;;;;;;3058970;19;20357;-69
2022/09/28 04:29:42;;;;;;;76.88;11.30;;;6.80;99.90;;;;;;3058741;19;20022;-69
2022/09/28 04:30:46;;;;;;;83.60;10.93;;;6.70;99.90;;;;;;3057870;19;20496;-69
2022/09/28 04:31:52;;;;;;;55.92;9.77;;;6.70;99.90;;;;;;3058551;19;20021;-69
2022/09/28 04:32:53;;;;;;;79.82;10.85;;;6.70;99.90;;;;;;3056294;19;20010;-69
2022/09/28 04:33:58;;;;;;;63.60;9.55;;;;;;;;;;3058902;19;20014;-69
2022/09/28 04:35:03;;;;;;;51.03;9.48;;;6.80;99.90;;;;;;3057951;19;20014;-68
2022/09/28 04:36:08;;;;;;;77.55;10.60;;;6.70;99.90;;;;;;3057261;19;20010;-69
2022/09/28 04:37:09;;;;;;;70.57;10.23;;;6.80;99.90;;;;;;3058823;19;20015;-68
2022/09/28 04:38:14;;;;;;;80.53;9.75;;;;;;;;;;3056786;19;20015;-68
2022/09/28 04:39:16;;;;;;;59.95;9.68;;;5.70;99.90;;;;;;3058282;19;20015;-69
2022/09/28 04:40:20;;;;;;;97.65;10.63;;;6.50;99.90;;;;;;3057756;19;20018;-68
2022/09/28 04:41:22;;;;;;;38.58;9.70;;;6.70;99.90;;;;;;3057261;19;20483;-70
2022/09/28 04:42:25;;;;;;;63.78;10.75;;;6.60;99.90;;;;;;3057446;19;20018;-69
2022/09/28 04:43:27;;;;;;;74.22;10.40;;;6.70;99.90;;;;;;3057646;19;20007;-69
2022/09/28 04:44:31;;;;;;;122.38;12.10;;;6.70;99.90;;;;;;3057637;19;20382;-69
2022/09/28 04:45:33;;;;;;;108.78;12.60;;;;;;;;;;3057983;19;20015;-69
2022/09/28 04:46:37;;;;;;;107.72;12.57;;;;;;;;;;3057571;19;20450;-69
2022/09/28 04:47:38;;;;;;;161.93;12.88;;;6.60;99.90;;;;;;3058250;19;20022;-69
2022/09/28 04:48:42;;;;;;;155.55;13.43;;;;;;;;;;3057228;19;20085;-69
2022/09/28 04:49:44;;;;;;;132.27;11.82;;;6.70;99.90;;;;;;3058085;19;20017;-69
2022/09/28 04:50:58;;;;;;;96.57;12.18;;;6.50;99.90;;;;;;3058112;19;20035;-69
2022/09/28 04:51:59;;;;;;;158.85;13.57;;;;;;;;;;3058536;19;20018;-69
2022/09/28 04:53:03;;;;;;;124.40;11.57;;;6.60;99.90;;;;;;3056641;19;20014;-69
2022/09/28 04:54:05;;;;;;;153.90;13.27;;;6.90;99.90;;;;;;3057058;19;20459;-69
2022/09/28 04:55:11;;;;;;;149.23;13.07;;;6.60;99.90;;;;;;3058777;19;20042;-69
2022/09/28 04:56:14;;;;;;;154.02;12.95;;;6.40;99.90;;;;;;3056977;19;20007;-69
2022/09/28 04:57:18;;;;;;;247.63;16.83;;;6.50;99.90;;;;;;3057737;19;20031;-69
2022/09/28 04:58:19;;;;;;;116.28;12.32;;;6.60;99.90;;;;;;3057524;19;20015;-69
2022/09/28 04:59:23;;;;;;;93.88;12.15;;;6.70;99.90;;;;;;3057759;19;20329;-69
2022/09/28 05:00:24;;;;;;;91.30;12.38;;;6.50;99.90;;;;;;3056693;19;20011;-69
2022/09/28 05:01:29;;;;;;;155.35;14.68;;;;;;;;;;3058635;19;20422;-70
2022/09/28 05:02:31;;;;;;;222.70;15.98;;;6.60;99.90;;;;;;3058143;19;20018;-69
2022/09/28 05:03:34;;;;;;;;;;;6.80;99.90;;;;;;3058635;19;20051;-69
2022/09/28 05:04:36;;;;;;;117.47;12.27;;;6.50;99.90;;;;;;3057721;19;19923;-69
2022/09/28 05:05:45;;;;;;;78.75;11.15;;;6.60;99.90;;;;;;3057805;19;20068;-69
2022/09/28 05:06:52;;;;;;;80.05;10.80;;;6.50;99.90;;;;;;3057913;19;20022;-69
2022/09/28 05:07:57;;;;;;;82.13;10.52;;;6.80;99.90;;;;;;3057236;19;20019;-69
2022/09/28 05:09:00;;;;;;;91.93;11.27;;;6.50;99.90;;;;;;3057173;19;20014;-69
2022/09/28 05:10:02;;;;;;;69.63;10.75;;;6.90;99.90;;;;;;3057983;19;20009;-69
2022/09/28 05:11:08;;;;;;;142.50;13.15;;;6.50;99.90;;;;;;3056944;19;20044;-69
2022/09/28 05:12:09;;;;;;;115.18;12.48;;;6.60;99.90;;;;;;3058784;19;20021;-70
2022/09/28 05:13:16;;;;;;;71.75;9.48;;;6.40;99.90;;;;;;3059326;19;20022;-69
2022/09/28 05:14:20;;;;;;;69.15;9.57;;;;;;;;;;3059833;19;20027;-69
2022/09/28 05:15:22;;;;;;;40.13;9.07;;;6.40;99.90;;;;;;3060840;19;20022;-69
2022/09/28 05:16:27;;;;;;;51.47;8.90;;;6.20;99.90;;;;;;3060393;19;20018;-69
2022/09/28 05:17:28;;;;;;;44.10;9.23;;;6.10;99.90;;;;;;3060544;19;20010;-69
2022/09/28 05:18:32;;;;;;;41.95;9.00;;;6.40;99.90;;;;;;3061385;19;20019;-69
2022/09/28 05:19:33;;;;;;;43.65;9.05;;;6.40;99.90;;;;;;3060412;19;20019;-68
2022/09/28 05:20:43;;;;;;;34.08;9.10;;;6.40;99.90;;;;;;3059896;19;20357;-69
2022/09/28 05:21:44;;;;;;;47.05;9.93;;;6.30;99.90;;;;;;3059304;19;20023;-69
2022/09/28 05:22:51;;;;;;;;;;;6.50;99.90;;;;;;3059094;19;20018;-69
2022/09/28 05:23:57;;;;;;;59.78;8.73;;;6.80;99.90;;;;;;3058681;19;20333;-69
2022/09/28 05:24:59;;;;;;;31.85;8.50;;;6.50;99.90;;;;;;3062215;19;20031;-69
2022/09/28 05:26:03;;;;;;;28.40;8.50;;;6.00;99.90;;;;;;3060631;19;20031;-69
2022/09/28 05:27:05;;;;;;;40.38;9.65;;;;;;;;;;3060780;19;20372;-69
2022/09/28 05:28:09;;;;;;;33.10;8.75;;;6.40;99.90;;;;;;3060392;19;20014;-69
2022/09/28 05:29:13;;;;;;;34.20;8.82;;;;;;;;;;3060838;19;20031;-70
2022/09/28 05:30:15;;;;;;;41.00;9.20;;;6.20;99.90;;;;;;3060480;19;20325;-69
2022/09/28 05:31:19;;;;;;;39.90;8.90;;;6.20;99.90;;;;;;3058719;19;20021;-69
2022/09/28 05:32:20;;;;;;;32.80;8.15;;;6.20;99.90;;;;;;3060687;19;20035;-69
2022/09/28 05:33:24;;;;;;;30.25;8.48;;;;;;;;;;3059156;19;20022;-70
2022/09/28 05:34:26;;;;;;;33.10;8.50;;;;;;;;;;3057560;19;20951;-69
2022/09/28 05:35:31;;;;;;;20.17;7.72;;;6.30;99.90;;;;;;3061085;19;20011;-69
2022/09/28 05:36:32;;;;;;;78.72;9.80;;;;;;;;;;3056969;19;20472;-70
2022/09/28 05:37:36;;;;;;;57.75;8.85;;;6.20;99.90;;;;;;3057489;19;20018;-69
2022/09/28 05:38:40;;;;;;;84.03;9.73;;;6.20;99.90;;;;;;3058579;19;20015;-69
2022/09/28 05:39:44;;;;;;;33.17;7.88;;;6.20;99.90;;;;;;3060114;19;20421;-69
2022/09/28 05:40:45;;;;;;;17.90;7.75;;;6.10;99.90;;;;;;3059099;19;20014;-69
2022/09/28 05:41:49;;;;;;;36.00;8.45;;;6.30;99.90;;;;;;3060870;19;20414;-69
2022/09/28 05:42:50;;;;;;;38.53;8.05;;;6.20;99.90;;;;;;3059818;19;20073;-69
2022/09/28 05:43:54;;;;;;;18.10;7.53;;;6.30;99.90;;;;;;3060456;19;20015;-69
2022/09/28 05:44:57;;;;;;;67.20;8.65;;;6.10;99.90;;;;;;3060091;19;20040;-69
2022/09/28 05:46:01;;;;;;;76.40;9.85;;;6.00;99.90;;;;;;3060683;19;20010;-69
2022/09/28 05:47:02;;;;;;;44.53;8.90;;;6.00;99.90;;;;;;3060624;19;20021;-69
2022/09/28 05:48:14;;;;;;;59.65;8.75;;;6.10;99.90;;;;;;3060329;19;20113;-75
2022/09/28 05:49:15;;;;;;;35.63;8.07;;;6.20;99.90;;;;;;3060309;19;20015;-69
2022/09/28 05:50:19;;;;;;;67.03;9.13;;;6.00;99.90;;;;;;3060314;19;20023;-70
2022/09/28 05:51:21;;;;;;;53.70;8.65;;;5.90;99.90;;;;;;3059324;19;19999;-69
2022/09/28 05:52:25;;;;;;;65.18;9.45;;;;;;;;;;3060102;19;20006;-70
2022/09/28 05:53:26;;;;;;;58.90;8.20;;;6.10;99.90;;;;;;3061859;19;20368;-70
2022/09/28 05:54:32;;;;;;;30.30;7.40;;;6.10;99.90;;;;;;3060236;19;20385;-71
2022/09/28 05:55:38;;;;;;;68.07;9.35;;;6.10;99.90;;;;;;3060774;19;20018;-70
2022/09/28 05:56:40;;;;;;;84.35;9.38;;;6.20;99.90;;;;;;3057947;19;20039;-70
2022/09/28 05:57:44;;;;;;;28.08;8.05;;;;;;;;;;3060728;19;20014;-70